Flight Information

DEPARTURE
MONTEREY, CA
Elevation:
256
Runways:
10R/28L - 7175x150 - ASPH-G
10L/28R - 3503x60 - ASPH-F
ATIS:
119.25 831-375-7433
Clearance Delivery:
135.45
Ground:
120.875
Tower:
MONTEREY TOWER 118.4
DESTINATION
,
Elevation:
TPA:
1000 (est.)


6903.6 NM70° True-15° Var54° HDG

Flight Plan:
(click to file on line)

1. Type
2. Aircraft Identification
3. Aircraft Type / Special Equipment
4. True Airspeed
kts
5. Departure Airport
(ICAO code)
6. Arriving Airport
(ICAO code)
7. Cruising Altitude
ft
8. Alternate Airport
(ICAO code)
9. Route of Flight
10. Remarks


00:00:00 Departure ATIS: Destination ATIS:

Clearance Limit:
Route:
Altitude: Expect in minutes
Frequency:
Transponder: (7500 Hijack / 7600 Lost Comms / 7700 Emergency)


KMRY 030754Z AUTO 19004KT 10SM FU CLR 16/13 A3001 RMK AO2 SLP174 T01560128 402000144
Time: 2022-10-03T07:54:00Z
1664787210
Winds: 190 @ 4 kts
Visibility: 10.0 sm
Clouds (AGL): CLR
Temperature: 15.6 C
Dew Point: 12.8 C
Pressure: 30.008858 in Hgbr


Notes:

Data extracted from FAA Digital Chart Supplement. Effective: 0901Z Thursday, 27 JAN 2022 to 0900z Thursday, 24 MAR 2022
Current ATIS data is provided courtisy of PilotEdge.